Time;durP1;ratioP1;P1;durP2;ratioP2;P2;SDS_P1;SDS_P2;PMS_P1;PMS_P2;Temp;Humidity;BMP_temperature;BMP_pressure;BME280_temperature;BME280_humidity;BME280_pressure;Samples;Min_cycle;Max_cycle;Signal;HPM_P1;HPM_P2
2021/11/30 00:00:48;;;;;;;;;;;24.50;37.50;;;;;;5090246;28;19916;-82
2021/11/30 00:03:13;;;;;;;;;;;24.50;37.60;;;;;;5107473;28;19919;-85
2021/11/30 00:05:39;;;;;;;;;;;24.50;37.60;;;;;;5083451;28;20314;-84
2021/11/30 00:08:05;;;;;;;;;;;24.50;37.60;;;;;;5105265;28;19908;-84
2021/11/30 00:10:46;;;;;;;;;;;24.50;37.70;;;;;;5103776;28;19908;-83
2021/11/30 00:13:12;;;;;;;;;;;24.50;37.70;;;;;;5103137;28;20300;-83
2021/11/30 00:15:41;;;;;;;;;;;24.50;37.80;;;;;;5096959;28;20293;-85
2021/11/30 00:18:06;;;;;;;;;;;24.40;37.80;;;;;;5078797;28;19969;-84
2021/11/30 00:20:32;;;;;;;;;;;24.50;37.80;;;;;;5112187;28;19999;-82
2021/11/30 00:22:57;;;;;;;;;;;24.50;37.90;;;;;;5095154;28;19916;-84
2021/11/30 00:25:23;;;;;;;;;;;24.40;37.90;;;;;;5095820;28;19919;-84
2021/11/30 00:27:48;;;;;;;;;;;24.50;37.90;;;;;;5095016;28;20313;-83
2021/11/30 00:30:14;;;;;;;;;;;24.40;37.90;;;;;;5094913;28;19908;-82
2021/11/30 00:32:42;;;;;;;;;;;24.40;37.90;;;;;;5078184;28;19908;-84
2021/11/30 00:35:07;;;;;;;;;;;24.50;38.00;;;;;;5094771;28;20002;-83
2021/11/30 00:37:33;;;;;;;;;;;24.40;37.90;;;;;;5077866;28;20065;-83
2021/11/30 00:39:58;;;;;;;;;;;24.40;38.00;;;;;;5094687;28;19965;-85
2021/11/30 00:42:25;;;;;;;;;;;24.40;38.00;;;;;;5094517;28;20328;-83
2021/11/30 00:44:52;;;;;;;;;;;24.50;38.00;;;;;;5093773;28;19955;-82
2021/11/30 00:47:19;;;;;;;;;;;24.50;38.00;;;;;;5095417;28;19999;-82
2021/11/30 00:49:48;;;;;;;;;;;24.50;38.10;;;;;;5094884;28;19908;-82
2021/11/30 00:52:14;;;;;;;;;;;24.40;38.00;;;;;;5094543;28;19912;-84
2021/11/30 00:54:42;;;;;;;;;;;24.40;38.10;;;;;;5077537;28;19999;-85
2021/11/30 00:57:08;;;;;;;;;;;24.40;38.10;;;;;;5094160;28;19916;-82
2021/11/30 00:59:33;;;;;;;;;;;24.40;38.20;;;;;;5095397;28;19908;-84
2021/11/30 01:01:59;;;;;;;;;;;24.40;38.20;;;;;;5094146;28;19957;-84
2021/11/30 01:04:25;;;;;;;;;;;24.40;38.20;;;;;;5077924;28;19908;-84
2021/11/30 01:06:53;;;;;;;;;;;24.40;38.20;;;;;;5094215;28;19919;-82
2021/11/30 01:09:19;;;;;;;;;;;24.40;38.20;;;;;;5094225;28;19908;-82
2021/11/30 01:11:44;;;;;;;;;;;24.40;38.30;;;;;;5094826;28;19920;-82
2021/11/30 01:14:10;;;;;;;;;;;24.40;38.30;;;;;;5094896;28;19908;-84
2021/11/30 01:16:35;;;;;;;;;;;24.40;38.30;;;;;;5094922;28;19912;-85
2021/11/30 01:19:03;;;;;;;;;;;24.40;38.30;;;;;;5077239;28;19931;-83
2021/11/30 01:21:31;;;;;;;;;;;24.40;38.30;;;;;;5094927;28;19909;-82
2021/11/30 01:23:59;;;;;;;;;;;24.40;38.30;;;;;;5094263;28;19916;-83
2021/11/30 01:26:24;;;;;;;;;;;24.40;38.30;;;;;;5094200;28;19916;-82
2021/11/30 01:28:52;;;;;;;;;;;24.40;38.30;;;;;;5094258;28;19919;-83
2021/11/30 01:31:20;;;;;;;;;;;24.40;38.30;;;;;;5094903;28;20340;-83
2021/11/30 01:33:45;;;;;;;;;;;24.40;38.30;;;;;;5094823;28;19908;-82
2021/11/30 01:36:11;;;;;;;;;;;24.40;38.30;;;;;;5093860;28;20236;-82
2021/11/30 01:38:39;;;;;;;;;;;24.40;38.30;;;;;;5077110;28;20332;-83
2021/11/30 01:41:06;;;;;;;;;;;24.40;38.30;;;;;;5094435;28;19955;-83
2021/11/30 01:46:40;;;;;;;;;;;24.40;38.30;;;;;;5094788;28;20363;-82
2021/11/30 01:49:48;;;;;;;;;;;24.40;38.30;;;;;;5096920;28;19908;-84
2021/11/30 01:51:54;;;;;;;;;;;24.40;38.40;;;;;;5101624;28;19937;-87
2021/11/30 01:54:20;;;;;;;;;;;24.40;38.50;;;;;;5095708;28;19912;-82
2021/11/30 01:56:48;;;;;;;;;;;24.40;38.50;;;;;;5082188;28;19908;-83
2021/11/30 01:59:13;;;;;;;;;;;24.30;38.40;;;;;;5103329;28;19920;-82
2021/11/30 02:01:39;;;;;;;;;;;24.40;38.40;;;;;;5102043;28;19909;-86
2021/11/30 02:04:04;;;;;;;;;;;24.40;38.50;;;;;;5100287;28;19908;-84
2021/11/30 02:06:30;;;;;;;;;;;24.40;38.50;;;;;;5082219;28;19908;-83
2021/11/30 02:08:56;;;;;;;;;;;24.30;38.50;;;;;;5099382;28;20324;-83
2021/11/30 02:11:25;;;;;;;;;;;24.40;38.50;;;;;;5099588;28;19935;-81
2021/11/30 02:13:53;;;;;;;;;;;24.30;38.50;;;;;;5099685;28;19908;-82
2021/11/30 02:16:22;;;;;;;;;;;24.30;38.60;;;;;;5083068;28;19969;-84
2021/11/30 02:18:48;;;;;;;;;;;24.30;38.60;;;;;;5100627;28;20457;-83
2021/11/30 02:21:17;;;;;;;;;;;24.30;38.60;;;;;;5099874;28;19919;-83
2021/11/30 02:23:47;;;;;;;;;;;24.30;38.60;;;;;;5083148;28;20256;-80
2021/11/30 02:26:16;;;;;;;;;;;24.30;38.60;;;;;;5105915;28;20336;-83
2021/11/30 02:28:42;;;;;;;;;;;24.30;38.60;;;;;;5099844;28;19996;-86
2021/11/30 02:31:09;;;;;;;;;;;24.30;38.60;;;;;;5099269;28;19916;-85
2021/11/30 02:33:34;;;;;;;;;;;24.30;38.60;;;;;;5099169;28;20217;-83
2021/11/30 02:36:02;;;;;;;;;;;24.30;38.70;;;;;;5081929;28;19973;-85
2021/11/30 02:38:30;;;;;;;;;;;24.30;38.60;;;;;;5081763;28;19912;-81
2021/11/30 02:40:58;;;;;;;;;;;24.30;38.60;;;;;;5097247;28;19977;-84
2021/11/30 02:43:26;;;;;;;;;;;24.30;38.70;;;;;;5097079;28;19958;-83
2021/11/30 02:45:51;;;;;;;;;;;24.30;38.70;;;;;;5080153;28;19908;-85
2021/11/30 02:48:17;;;;;;;;;;;24.30;38.70;;;;;;5096840;28;20003;-82
2021/11/30 02:50:45;;;;;;;;;;;24.30;38.70;;;;;;5079849;28;19935;-83
2021/11/30 02:53:16;;;;;;;;;;;24.30;38.70;;;;;;5079906;28;19977;-83
2021/11/30 02:55:42;;;;;;;;;;;24.30;38.70;;;;;;5096722;28;19923;-83
2021/11/30 02:58:10;;;;;;;;;;;24.30;38.70;;;;;;5079395;28;19924;-82
2021/11/30 03:00:36;;;;;;;;;;;24.30;38.70;;;;;;5079847;28;19908;-82
2021/11/30 03:03:01;;;;;;;;;;;24.30;38.70;;;;;;5097151;28;20408;-82
2021/11/30 03:05:26;;;;;;;;;;;24.30;39.30;;;;;;5096498;28;19934;-81
2021/11/30 03:07:52;;;;;;;;;;;24.30;38.70;;;;;;5095441;28;19928;-83
2021/11/30 03:10:18;;;;;;;;;;;24.30;38.70;;;;;;5097088;28;20340;-84
2021/11/30 03:12:46;;;;;;;;;;;24.30;38.70;;;;;;5096415;28;19908;-83
2021/11/30 03:15:12;;;;;;;;;;;24.30;38.70;;;;;;5095998;28;19965;-85
2021/11/30 03:17:40;;;;;;;;;;;24.30;38.70;;;;;;5079779;28;19923;-82
2021/11/30 03:20:06;;;;;;;;;;;24.30;38.80;;;;;;5079524;28;19908;-84
2021/11/30 03:22:32;;;;;;;;;;;24.30;38.80;;;;;;5096803;28;20340;-82
2021/11/30 03:24:57;;;;;;;;;;;24.30;38.80;;;;;;5078921;28;20328;-84
2021/11/30 03:27:25;;;;;;;;;;;24.30;38.80;;;;;;5096073;28;20352;-83
2021/11/30 03:29:53;;;;;;;;;;;24.30;38.80;;;;;;5113110;28;19908;-83
2021/11/30 03:35:04;;;;;;;;;;;24.20;38.80;;;;;;5096663;28;19967;-84
2021/11/30 03:37:30;;;;;;;;;;;24.30;38.80;;;;;;5096097;28;20002;-84
2021/11/30 03:39:57;;;;;;;;;;;24.20;38.80;;;;;;5096992;28;19944;-84
2021/11/30 03:42:22;;;;;;;;;;;24.20;38.80;;;;;;5095936;28;19912;-85
2021/11/30 03:44:48;;;;;;;;;;;24.20;38.80;;;;;;5078987;28;19977;-83
2021/11/30 03:47:13;;;;;;;;;;;24.20;38.80;;;;;;5096194;28;19919;-84
2021/11/30 03:49:39;;;;;;;;;;;24.20;38.80;;;;;;5078530;28;19908;-84
2021/11/30 03:52:05;;;;;;;;;;;24.20;38.80;;;;;;5096550;28;19908;-81
2021/11/30 03:54:30;;;;;;;;;;;24.20;38.80;;;;;;5078462;28;19912;-82
2021/11/30 03:56:59;;;;;;;;;;;24.20;38.80;;;;;;5096862;28;19919;-81
2021/11/30 03:59:26;;;;;;;;;;;24.20;38.90;;;;;;5078438;28;20017;-81
2021/11/30 04:01:52;;;;;;;;;;;24.20;38.90;;;;;;5095345;28;19957;-84
2021/11/30 04:04:23;;;;;;;;;;;24.20;38.90;;;;;;5095497;28;19916;-84
2021/11/30 04:06:51;;;;;;;;;;;24.20;38.80;;;;;;5095082;28;20029;-81
2021/11/30 04:09:19;;;;;;;;;;;24.20;38.90;;;;;;5095198;28;19908;-83
2021/11/30 04:11:45;;;;;;;;;;;24.20;38.90;;;;;;5078671;28;19958;-82
2021/11/30 04:14:13;;;;;;;;;;;24.20;38.90;;;;;;5095834;28;20015;-84
2021/11/30 04:16:38;;;;;;;;;;;24.20;38.90;;;;;;5078521;28;19919;-82
2021/11/30 04:19:04;;;;;;;;;;;24.20;38.90;;;;;;5078245;28;19908;-81
2021/11/30 04:21:30;;;;;;;;;;;24.20;38.90;;;;;;5096397;28;20348;-82
2021/11/30 04:23:55;;;;;;;;;;;24.20;38.90;;;;;;5095056;28;19916;-80
2021/11/30 04:26:21;;;;;;;;;;;24.20;38.90;;;;;;5094961;28;20041;-83
2021/11/30 04:28:47;;;;;;;;;;;24.20;38.90;;;;;;5095885;28;19909;-80
2021/11/30 04:31:15;;;;;;;;;;;24.20;38.90;;;;;;5095977;28;19919;-82
2021/11/30 04:33:40;;;;;;;;;;;24.20;38.90;;;;;;5095818;28;19908;-81
2021/11/30 04:36:06;;;;;;;;;;;24.20;38.90;;;;;;5111624;28;19919;-83
2021/11/30 04:38:38;;;;;;;;;;;24.20;38.90;;;;;;5095650;28;19908;-84
2021/11/30 04:41:08;;;;;;;;;;;24.20;38.90;;;;;;5094685;28;19909;-81
2021/11/30 04:43:35;;;;;;;;;;;24.20;38.90;;;;;;5095290;28;19916;-81
2021/11/30 04:46:26;;;;;;;;;;;24.20;39.00;;;;;;5094593;28;19908;-81
2021/11/30 04:49:04;;;;;;;;;;;24.20;39.00;;;;;;5094615;28;19908;-81
2021/11/30 04:51:31;;;;;;;;;;;24.20;39.00;;;;;;5094380;28;19912;-81
2021/11/30 04:53:57;;;;;;;;;;;24.10;39.00;;;;;;5094394;28;19943;-82
2021/11/30 04:56:22;;;;;;;;;;;24.10;39.00;;;;;;5095369;28;19952;-81
2021/11/30 04:58:48;;;;;;;;;;;24.10;39.00;;;;;;5094232;28;19924;-82
2021/11/30 05:01:14;;;;;;;;;;;24.10;39.60;;;;;;5094305;28;20332;-81
2021/11/30 05:03:39;;;;;;;;;;;24.10;39.00;;;;;;5094385;28;20297;-83
2021/11/30 05:06:05;;;;;;;;;;;24.20;39.00;;;;;;5094468;28;19918;-79
2021/11/30 05:08:30;;;;;;;;;;;24.10;39.00;;;;;;5094223;28;19908;-80
2021/11/30 05:10:56;;;;;;;;;;;24.10;38.90;;;;;;5095026;28;19912;-82
2021/11/30 05:13:22;;;;;;;;;;;24.10;39.00;;;;;;5094156;28;19908;-83
2021/11/30 05:15:50;;;;;;;;;;;24.10;39.00;;;;;;5093972;28;19923;-79
2021/11/30 05:18:15;;;;;;;;;;;24.10;39.00;;;;;;5094548;28;20328;-82
2021/11/30 05:20:43;;;;;;;;;;;24.10;39.00;;;;;;5094591;28;19909;-81
2021/11/30 05:23:12;;;;;;;;;;;24.10;39.00;;;;;;5094518;28;19923;-81
2021/11/30 05:25:37;;;;;;;;;;;24.10;39.00;;;;;;5078227;28;19924;-82
2021/11/30 05:28:03;;;;;;;;;;;24.10;39.00;;;;;;5095978;28;19916;-81
2021/11/30 05:30:36;;;;;;;;;;;24.10;39.00;;;;;;5097533;28;19952;-84
2021/11/30 05:33:04;;;;;;;;;;;24.10;39.00;;;;;;5101633;28;19908;-82
2021/11/30 05:35:32;;;;;;;;;;;24.10;39.00;;;;;;5105709;28;20363;-82
2021/11/30 05:38:00;;;;;;;;;;;24.10;39.00;;;;;;5086204;28;19912;-83
2021/11/30 05:40:28;;;;;;;;;;;24.10;39.00;;;;;;5103096;28;20221;-82
2021/11/30 05:42:54;;;;;;;;;;;24.10;39.00;;;;;;5087481;28;19951;-85
2021/11/30 05:45:19;;;;;;;;;;;24.10;39.10;;;;;;5084730;28;19908;-85
2021/11/30 05:47:45;;;;;;;;;;;24.10;39.10;;;;;;5103654;28;19908;-81
2021/11/30 05:50:13;;;;;;;;;;;24.10;39.00;;;;;;5102172;28;19908;-80
2021/11/30 05:52:39;;;;;;;;;;;24.10;39.00;;;;;;5102422;28;19973;-80
2021/11/30 05:55:05;;;;;;;;;;;24.10;39.10;;;;;;5100019;28;19912;-82
2021/11/30 05:57:31;;;;;;;;;;;24.10;39.10;;;;;;5098450;28;19920;-81
2021/11/30 05:59:59;;;;;;;;;;;24.10;39.10;;;;;;5098731;28;19919;-83
2021/11/30 06:02:25;;;;;;;;;;;24.10;39.10;;;;;;5098276;28;19908;-81
2021/11/30 06:04:50;;;;;;;;;;;24.10;39.10;;;;;;5098925;28;20333;-83
2021/11/30 06:07:16;;;;;;;;;;;24.10;39.00;;;;;;5098315;28;19908;-80
2021/11/30 06:09:42;;;;;;;;;;;24.10;39.10;;;;;;5081036;28;19918;-82
2021/11/30 06:12:10;;;;;;;;;;;24.10;39.10;;;;;;5098870;28;19908;-84
2021/11/30 06:14:35;;;;;;;;;;;24.10;39.10;;;;;;5097761;28;19912;-82
2021/11/30 06:17:01;;;;;;;;;;;24.10;39.10;;;;;;5080626;28;19908;-80
2021/11/30 06:19:27;;;;;;;;;;;24.10;39.10;;;;;;5097262;28;19919;-82
2021/11/30 06:21:52;;;;;;;;;;;24.10;39.10;;;;;;5097528;28;19911;-85
2021/11/30 06:24:18;;;;;;;;;;;24.10;39.10;;;;;;5080734;28;19922;-83
2021/11/30 06:26:44;;;;;;;;;;;24.10;39.10;;;;;;5080215;28;19953;-84
2021/11/30 06:29:10;;;;;;;;;;;24.10;39.10;;;;;;5097516;28;19914;-83
2021/11/30 06:31:38;;;;;;;;;;;24.10;39.00;;;;;;5097377;28;19987;-84
2021/11/30 06:34:03;;;;;;;;;;;24.10;39.10;;;;;;5080651;28;19908;-82
2021/11/30 06:36:31;;;;;;;;;;;24.10;39.10;;;;;;5097489;28;19982;-85
2021/11/30 06:38:58;;;;;;;;;;;24.10;39.10;;;;;;5098146;28;19958;-82
2021/11/30 06:41:24;;;;;;;;;;;24.10;39.10;;;;;;5098405;28;19940;-83
2021/11/30 06:43:52;;;;;;;;;;;24.10;39.10;;;;;;5080304;28;19959;-81
2021/11/30 06:46:19;;;;;;;;;;;24.10;39.10;;;;;;5098044;28;20360;-83
2021/11/30 06:48:45;;;;;;;;;;;24.10;39.10;;;;;;5097588;28;20022;-84
2021/11/30 06:51:13;;;;;;;;;;;24.00;39.50;;;;;;5080340;28;20360;-81
2021/11/30 06:53:39;;;;;;;;;;;24.00;39.10;;;;;;5080099;28;19912;-84
2021/11/30 06:56:05;;;;;;;;;;;24.00;39.10;;;;;;5097457;28;19961;-82
2021/11/30 06:58:31;;;;;;;;;;;24.00;39.10;;;;;;5097190;28;19959;-84
2021/11/30 07:00:59;;;;;;;;;;;24.00;39.10;;;;;;5097310;28;19948;-82
2021/11/30 07:03:25;;;;;;;;;;;24.00;39.10;;;;;;5097719;28;19908;-84
2021/11/30 07:05:56;;;;;;;;;;;24.00;39.10;;;;;;5096616;28;20329;-83
2021/11/30 07:08:45;;;;;;;;;;;24.00;39.10;;;;;;5097951;28;19919;-83
2021/11/30 07:11:18;;;;;;;;;;;24.00;39.10;;;;;;5097613;28;19916;-80
2021/11/30 07:13:43;;;;;;;;;;;24.00;39.70;;;;;;5096959;28;19908;-82
2021/11/30 07:16:09;;;;;;;;;;;24.00;39.10;;;;;;5097764;28;20363;-81
2021/11/30 07:18:35;;;;;;;;;;;24.00;39.00;;;;;;5096440;28;20249;-85
2021/11/30 07:21:01;;;;;;;;;;;24.00;39.10;;;;;;5079779;28;20299;-82
2021/11/30 07:23:29;;;;;;;;;;;24.00;39.10;;;;;;5079788;28;19912;-84
2021/11/30 07:25:55;;;;;;;;;;;24.00;39.00;;;;;;5096536;28;19915;-82
2021/11/30 07:28:25;;;;;;;;;;;24.00;39.10;;;;;;5096550;28;20334;-86
2021/11/30 07:30:50;;;;;;;;;;;24.00;39.00;;;;;;5096959;28;19908;-84
2021/11/30 07:33:16;;;;;;;;;;;24.00;39.50;;;;;;5096336;28;19961;-83
2021/11/30 07:35:42;;;;;;;;;;;23.90;39.70;;;;;;5079451;28;19912;-80
2021/11/30 07:38:07;;;;;;;;;;;23.90;39.90;;;;;;5096741;28;20241;-83
2021/11/30 07:40:35;;;;;;;;;;;23.90;39.90;;;;;;5097058;28;19908;-83
2021/11/30 07:43:01;;;;;;;;;;;23.90;39.90;;;;;;5079454;28;20256;-82
2021/11/30 07:45:29;;;;;;;;;;;23.90;39.90;;;;;;5095903;28;19908;-83
2021/11/30 07:47:55;;;;;;;;;;;24.00;40.00;;;;;;5096011;28;19908;-84
2021/11/30 07:50:21;;;;;;;;;;;24.10;40.10;;;;;;5079352;28;19908;-84
2021/11/30 07:52:47;;;;;;;;;;;24.10;40.10;;;;;;5079156;28;19919;-84
2021/11/30 07:55:17;;;;;;;;;;;24.10;40.20;;;;;;5095436;28;20011;-84
2021/11/30 07:57:43;;;;;;;;;;;24.10;40.50;;;;;;5078810;28;20337;-84
2021/11/30 08:00:10;;;;;;;;;;;24.20;40.60;;;;;;5095646;28;19920;-84
2021/11/30 08:02:40;;;;;;;;;;;24.20;40.60;;;;;;5078869;28;19999;-84
2021/11/30 08:05:08;;;;;;;;;;;24.20;40.80;;;;;;5095872;28;19912;-82
2021/11/30 08:07:34;;;;;;;;;;;24.20;40.90;;;;;;5095673;28;19998;-86
2021/11/30 08:10:02;;;;;;;;;;;24.20;40.90;;;;;;5095806;28;19954;-83
2021/11/30 08:12:30;;;;;;;;;;;24.30;41.00;;;;;;5096208;28;19908;-83
2021/11/30 08:14:56;;;;;;;;;;;24.30;41.00;;;;;;5095633;28;19912;-84
2021/11/30 08:17:21;;;;;;;;;;;24.30;41.00;;;;;;5096191;28;19953;-82
2021/11/30 08:19:49;;;;;;;;;;;24.30;41.00;;;;;;5095548;28;20007;-84
2021/11/30 08:22:17;;;;;;;;;;;24.30;40.80;;;;;;5094800;28;19919;-84
2021/11/30 08:24:45;;;;;;;;;;;24.40;41.00;;;;;;5095572;28;19931;-82
2021/11/30 08:27:16;;;;;;;;;;;24.40;41.20;;;;;;5095340;28;19988;-84
2021/11/30 08:29:45;;;;;;;;;;;24.40;41.20;;;;;;5095853;28;19986;-84
2021/11/30 08:32:13;;;;;;;;;;;24.40;41.00;;;;;;5095103;28;19919;-84
2021/11/30 08:34:42;;;;;;;;;;;24.40;40.80;;;;;;5095348;28;19927;-83
2021/11/30 08:37:08;;;;;;;;;;;24.40;40.60;;;;;;5078961;28;19908;-86
2021/11/30 08:39:36;;;;;;;;;;;24.40;40.50;;;;;;5095402;28;19920;-82
2021/11/30 08:42:02;;;;;;;;;;;24.40;40.50;;;;;;5096211;28;19908;-84
2021/11/30 08:44:31;;;;;;;;;;;24.40;40.60;;;;;;5096040;28;20327;-85
2021/11/30 08:46:58;;;;;;;;;;;24.40;40.70;;;;;;5095981;28;20261;-83
2021/11/30 08:49:26;;;;;;;;;;;24.40;40.80;;;;;;5095854;28;20287;-83
2021/11/30 08:51:52;;;;;;;;;;;24.40;40.80;;;;;;5095253;28;19927;-83
2021/11/30 08:54:17;;;;;;;;;;;24.50;40.80;;;;;;5078529;28;19908;-82
2021/11/30 08:56:43;;;;;;;;;;;24.40;40.60;;;;;;5096763;28;20011;-84
2021/11/30 08:59:11;;;;;;;;;;;24.50;40.50;;;;;;5078192;28;19931;-82
2021/11/30 09:01:42;;;;;;;;;;;24.50;40.40;;;;;;5095357;28;19915;-86
2021/11/30 09:04:10;;;;;;;;;;;24.50;40.40;;;;;;5103161;28;19918;-84
2021/11/30 09:06:35;;;;;;;;;;;24.50;40.30;;;;;;5105266;28;19931;-84
2021/11/30 09:09:03;;;;;;;;;;;24.50;40.50;;;;;;5085532;28;19908;-82
2021/11/30 09:11:28;;;;;;;;;;;24.50;40.60;;;;;;5100210;28;20229;-82
2021/11/30 09:13:54;;;;;;;;;;;24.50;40.60;;;;;;5102275;28;19910;-83
2021/11/30 09:16:21;;;;;;;;;;;24.50;40.60;;;;;;5079997;28;19912;-83
2021/11/30 09:18:49;;;;;;;;;;;24.50;40.50;;;;;;5078451;28;19908;-83
2021/11/30 09:21:15;;;;;;;;;;;24.50;40.50;;;;;;5078168;28;19908;-85
2021/11/30 09:23:44;;;;;;;;;;;24.50;40.40;;;;;;5077636;28;19908;-83
2021/11/30 09:26:12;;;;;;;;;;;24.50;40.40;;;;;;5078204;28;19969;-82
2021/11/30 09:28:38;;;;;;;;;;;24.50;40.30;;;;;;5077724;28;19912;-83
2021/11/30 09:31:04;;;;;;;;;;;24.50;40.30;;;;;;5095377;28;19909;-81
2021/11/30 09:33:32;;;;;;;;;;;24.50;40.20;;;;;;5096046;28;19940;-83
2021/11/30 09:36:00;;;;;;;;;;;24.50;40.20;;;;;;5094873;28;19943;-85
2021/11/30 09:38:26;;;;;;;;;;;24.50;40.10;;;;;;5095105;28;20226;-83
2021/11/30 09:40:58;;;;;;;;;;;24.50;40.00;;;;;;5095073;28;19958;-83
2021/11/30 09:43:24;;;;;;;;;;;24.60;39.60;;;;;;5095529;28;20244;-81
2021/11/30 09:45:52;;;;;;;;;;;24.50;39.80;;;;;;5094289;28;19908;-82
2021/11/30 09:48:18;;;;;;;;;;;24.50;39.70;;;;;;5111213;28;20258;-83
2021/11/30 09:50:43;;;;;;;;;;;24.40;28.80;;;;;;5095661;28;19912;-80
2021/11/30 09:53:09;;;;;;;;;;;23.10;28.60;;;;;;5094352;28;19971;-83
2021/11/30 09:55:36;;;;;;;;;;;22.60;35.70;;;;;;5094709;28;20362;-82
2021/11/30 09:58:02;;;;;;;;;;;22.90;35.80;;;;;;5095406;28;19980;-83
2021/11/30 10:00:28;;;;;;;;;;;23.20;35.80;;;;;;5078433;28;19995;-83
2021/11/30 10:02:59;;;;;;;;;;;23.40;36.10;;;;;;5094379;28;20024;-83
2021/11/30 10:05:26;;;;;;;;;;;23.60;36.20;;;;;;5095207;28;20287;-81
2021/11/30 10:07:53;;;;;;;;;;;23.80;36.30;;;;;;5095119;28;19912;-81
2021/11/30 10:10:22;;;;;;;;;;;23.90;36.30;;;;;;5076979;28;19916;-83
2021/11/30 10:13:07;;;;;;;;;;;24.00;36.40;;;;;;5077360;28;20011;-84
2021/11/30 10:15:47;;;;;;;;;;;24.10;36.60;;;;;;5093876;28;19912;-81
2021/11/30 10:18:17;;;;;;;;;;;24.20;36.70;;;;;;5096670;28;19935;-84
2021/11/30 10:20:45;;;;;;;;;;;24.20;36.80;;;;;;5099464;28;20260;-83
2021/11/30 10:23:12;;;;;;;;;;;24.20;36.90;;;;;;5081871;28;19908;-86
2021/11/30 10:25:40;;;;;;;;;;;24.30;37.10;;;;;;5081934;28;19962;-83
2021/11/30 10:28:08;;;;;;;;;;;24.30;37.10;;;;;;5098667;28;19918;-83
2021/11/30 10:30:35;;;;;;;;;;;24.30;36.90;;;;;;5099215;28;20355;-82
2021/11/30 10:33:05;;;;;;;;;;;24.30;36.90;;;;;;5080680;28;19908;-83
2021/11/30 10:35:33;;;;;;;;;;;24.30;36.90;;;;;;5080563;28;20014;-83
2021/11/30 10:37:59;;;;;;;;;;;24.30;36.90;;;;;;5080498;28;20337;-83
2021/11/30 10:40:31;;;;;;;;;;;24.30;36.90;;;;;;5080533;28;19915;-81
2021/11/30 10:42:58;;;;;;;;;;;24.30;36.90;;;;;;5081298;28;19908;-80
2021/11/30 10:45:27;;;;;;;;;;;24.30;36.90;;;;;;5096830;28;19957;-79
2021/11/30 10:47:52;;;;;;;;;;;24.30;36.90;;;;;;5096924;28;20253;-77
2021/11/30 10:50:25;;;;;;;;;;;24.30;36.90;;;;;;5097605;28;19912;-81
2021/11/30 10:52:52;;;;;;;;;;;24.30;37.20;;;;;;5096765;28;20269;-80
2021/11/30 10:55:20;;;;;;;;;;;24.30;37.40;;;;;;5079842;28;20198;-79
2021/11/30 10:57:46;;;;;;;;;;;24.30;37.50;;;;;;5079476;28;19927;-80
2021/11/30 11:00:19;;;;;;;;;;;24.40;37.60;;;;;;5079683;28;19977;-80
2021/11/30 11:03:34;;;;;;;;;;;24.40;37.70;;;;;;5080000;28;19916;-78
2021/11/30 11:05:35;;;;;;;;;;;24.40;37.80;;;;;;5082545;28;20343;-79
2021/11/30 11:08:02;;;;;;;;;;;24.40;37.90;;;;;;5096526;28;19916;-80
2021/11/30 11:10:30;;;;;;;;;;;24.40;37.70;;;;;;5079535;28;19908;-81
2021/11/30 11:12:56;;;;;;;;;;;24.40;37.70;;;;;;5080208;28;20348;-79
2021/11/30 11:15:39;;;;;;;;;;;24.40;38.30;;;;;;5096625;28;19912;-80
2021/11/30 11:18:37;;;;;;;;;;;24.40;37.90;;;;;;5097811;28;19908;-80
2021/11/30 11:21:11;;;;;;;;;;;24.40;38.10;;;;;;5065223;28;20291;-77
2021/11/30 11:23:41;;;;;;;;;;;24.40;38.20;;;;;;5098661;28;19935;-80
2021/11/30 11:26:20;;;;;;;;;;;24.40;38.30;;;;;;5083496;28;20018;-80
2021/11/30 11:28:46;;;;;;;;;;;24.40;38.30;;;;;;5079201;28;19908;-81
2021/11/30 11:31:14;;;;;;;;;;;24.40;38.30;;;;;;5079602;28;19920;-82
2021/11/30 11:33:40;;;;;;;;;;;24.40;38.30;;;;;;5097360;28;20252;-80
2021/11/30 11:36:05;;;;;;;;;;;24.40;38.30;;;;;;5080012;28;19912;-79
2021/11/30 11:38:31;;;;;;;;;;;24.40;38.30;;;;;;5079989;28;19919;-80
2021/11/30 11:40:57;;;;;;;;;;;24.40;38.20;;;;;;5097824;28;19908;-78
2021/11/30 11:43:25;;;;;;;;;;;24.40;38.30;;;;;;5096298;28;20292;-79
2021/11/30 11:45:53;;;;;;;;;;;24.40;38.30;;;;;;5095931;28;20002;-78
2021/11/30 11:48:19;;;;;;;;;;;24.40;38.40;;;;;;5079380;28;19923;-78
2021/11/30 11:50:53;;;;;;;;;;;24.40;38.50;;;;;;5098292;28;19909;-81
2021/11/30 11:53:22;;;;;;;;;;;24.40;38.60;;;;;;5099083;28;19947;-79
2021/11/30 11:56:26;;;;;;;;;;;24.50;38.70;;;;;;5097889;28;19959;-79
2021/11/30 11:59:14;;;;;;;;;;;24.40;38.80;;;;;;5036253;28;19932;-80
2021/11/30 12:01:43;;;;;;;;;;;24.50;38.90;;;;;;5003433;28;19910;-77
2021/11/30 12:04:09;;;;;;;;;;;24.50;38.90;;;;;;5034985;28;20447;-78
2021/11/30 12:06:35;;;;;;;;;;;24.50;39.00;;;;;;5003119;28;19910;-77
2021/11/30 12:09:07;;;;;;;;;;;24.50;39.00;;;;;;5019220;28;19919;-78
2021/11/30 12:11:41;;;;;;;;;;;24.50;39.00;;;;;;5019242;28;19959;-78
2021/11/30 12:14:10;;;;;;;;;;;24.50;38.90;;;;;;5020575;28;19968;-80
2021/11/30 12:16:57;;;;;;;;;;;24.50;39.00;;;;;;5019509;28;19913;-81
2021/11/30 12:19:29;;;;;;;;;;;24.50;39.00;;;;;;5035360;28;19909;-78
2021/11/30 12:21:54;;;;;;;;;;;24.50;39.10;;;;;;5006448;28;19909;-81
2021/11/30 12:24:33;;;;;;;;;;;24.50;39.20;;;;;;5019593;28;19935;-77
2021/11/30 12:27:00;;;;;;;;;;;24.60;39.20;;;;;;5017561;28;19975;-79
2021/11/30 12:29:29;;;;;;;;;;;24.50;39.40;;;;;;5043937;28;19908;-77
2021/11/30 12:31:56;;;;;;;;;;;24.50;39.20;;;;;;5094853;28;19918;-80
2021/11/30 12:34:31;;;;;;;;;;;24.50;39.10;;;;;;5078140;28;19951;-78
2021/11/30 12:37:07;;;;;;;;;;;24.50;39.10;;;;;;5094770;28;20336;-78
2021/11/30 12:39:51;;;;;;;;;;;24.60;39.10;;;;;;5095721;28;20321;-80
2021/11/30 12:42:17;;;;;;;;;;;24.50;39.10;;;;;;5095519;28;19961;-78
2021/11/30 12:44:45;;;;;;;;;;;24.60;39.10;;;;;;5077941;28;19909;-78
2021/11/30 12:47:18;;;;;;;;;;;24.50;39.10;;;;;;5095430;28;19926;-79
2021/11/30 12:49:46;;;;;;;;;;;24.50;39.10;;;;;;5077945;28;19908;-83
2021/11/30 12:52:14;;;;;;;;;;;24.50;39.10;;;;;;5094863;28;20003;-79
2021/11/30 12:54:45;;;;;;;;;;;24.50;39.00;;;;;;5077748;28;19912;-78
2021/11/30 12:57:12;;;;;;;;;;;24.50;39.00;;;;;;5077833;28;19908;-83
2021/11/30 12:59:38;;;;;;;;;;;24.50;39.00;;;;;;5077621;28;20355;-80
2021/11/30 13:02:22;;;;;;;;;;;24.50;38.80;;;;;;5097070;28;19912;-77
2021/11/30 13:04:55;;;;;;;;;;;24.50;39.00;;;;;;5096795;28;19916;-77
2021/11/30 13:07:24;;;;;;;;;;;24.50;39.10;;;;;;5096844;28;20044;-78
2021/11/30 13:09:52;;;;;;;;;;;24.50;39.80;;;;;;5081095;28;19912;-79
2021/11/30 13:12:27;;;;;;;;;;;24.50;39.30;;;;;;5097932;28;19931;-76
2021/11/30 13:14:53;;;;;;;;;;;24.50;39.50;;;;;;5097082;28;19916;-79
2021/11/30 13:17:30;;;;;;;;;;;24.60;39.60;;;;;;5078887;28;19912;-78
2021/11/30 13:19:56;;;;;;;;;;;24.50;39.40;;;;;;5078604;28;19908;-77
2021/11/30 13:22:23;;;;;;;;;;;24.50;39.50;;;;;;5095198;28;19908;-79
2021/11/30 13:24:49;;;;;;;;;;;24.50;39.50;;;;;;5077534;28;20257;-78
2021/11/30 13:27:15;;;;;;;;;;;24.50;39.50;;;;;;5077572;28;19916;-76
2021/11/30 13:30:04;;;;;;;;;;;24.60;39.50;;;;;;5094959;28;19908;-77
2021/11/30 13:32:37;;;;;;;;;;;24.60;39.50;;;;;;5083347;28;19977;-78
2021/11/30 13:35:07;;;;;;;;;;;24.60;39.50;;;;;;5077845;28;20359;-80
2021/11/30 13:37:32;;;;;;;;;;;24.60;39.50;;;;;;5078989;28;19919;-77
2021/11/30 13:40:00;;;;;;;;;;;24.60;39.50;;;;;;5095293;28;19908;-78
2021/11/30 13:42:26;;;;;;;;;;;24.60;39.50;;;;;;5095642;28;20042;-78
2021/11/30 13:44:52;;;;;;;;;;;24.60;39.50;;;;;;5079259;28;19935;-82
2021/11/30 13:47:20;;;;;;;;;;;24.50;39.50;;;;;;5095698;28;20349;-79
2021/11/30 13:49:46;;;;;;;;;;;24.50;39.50;;;;;;5078481;28;19908;-78
2021/11/30 13:52:22;;;;;;;;;;;24.50;39.50;;;;;;5079885;28;19908;-79
2021/11/30 13:54:52;;;;;;;;;;;24.60;39.50;;;;;;5099940;28;19912;-80
2021/11/30 13:57:22;;;;;;;;;;;24.60;39.60;;;;;;5098137;28;19909;-78
2021/11/30 13:59:52;;;;;;;;;;;24.50;39.50;;;;;;5099716;28;19908;-78
2021/11/30 14:02:18;;;;;;;;;;;24.60;39.40;;;;;;5099006;28;20019;-80
2021/11/30 14:04:43;;;;;;;;;;;24.50;40.00;;;;;;5081339;28;19948;-81
2021/11/30 14:07:09;;;;;;;;;;;24.60;39.50;;;;;;5080955;28;19930;-80
2021/11/30 14:09:42;;;;;;;;;;;24.60;39.50;;;;;;5080701;28;19966;-81
2021/11/30 14:12:10;;;;;;;;;;;24.60;39.50;;;;;;5081025;28;19920;-78
2021/11/30 14:14:36;;;;;;;;;;;24.60;39.50;;;;;;5081014;28;19908;-81
2021/11/30 14:17:08;;;;;;;;;;;24.60;39.60;;;;;;5080675;28;19919;-79
2021/11/30 14:19:40;;;;;;;;;;;24.60;39.50;;;;;;5097890;28;20325;-79
2021/11/30 14:22:06;;;;;;;;;;;24.60;39.40;;;;;;5080791;28;20352;-78
2021/11/30 14:24:34;;;;;;;;;;;24.60;39.40;;;;;;5080731;28;19908;-81
2021/11/30 14:27:10;;;;;;;;;;;24.60;39.40;;;;;;5080291;28;19908;-81